Kaihou — 7JCA — position and weather

sailwx.info

Track history (hours):
 
Tides and Currents Weather Stations Pressure Air Temp Water Temp Dewpoint Dewpoint Depression Visibility Wind Speed Wind Dir Waves Ship Positions

Kaihou

Last reported at 2018-Jun-13 04:28 UTC. Time now 2018-Jun-20 22:47 UTC.
Position N 35°10' E 139°44'.

Length 33 m; draft 3.8 m.

Type: Towing. MMSI: 431402046.

Date/timePositionNaut miles runAvg speedWind from/ knotsBaromVisibWave heightAir tempDewpointWater temp
2018-Jun-13 04:28N 35°10' E 139°44'3 6.4
2018-Jun-13 04:00N 35°13' E 139°45'6 5.8
2018-Jun-13 03:02N 35°18' E 139°43'0 7.0
2018-Jun-13 02:59N 35°19' E 139°43'3 5.7
2018-Jun-13 02:24N 35°22' E 139°41'2 5.5
2018-Jun-13 02:00N 35°23' E 139°39'1 2.2
2018-Jun-13 01:30N 35°23' E 139°38'0 0.0
2018-Jun-13 01:00N 35°23' E 139°38'0 0.3
2018-Jun-13 00:30N 35°23' E 139°38'0 0.0
2018-Jun-13 00:00N 35°23' E 139°38'0 0.1
2018-Jun-12 23:30N 35°23' E 139°38'0 0.1
2018-Jun-12 23:00N 35°23' E 139°38'0 0.0
2018-Jun-12 22:30N 35°23' E 139°38'0 0.0
2018-Jun-12 22:00N 35°23' E 139°38'0 0.1
2018-Jun-12 21:30N 35°23' E 139°38'2 3.6
2018-Jun-12 21:00N 35°23' E 139°40'5 9.8
2018-Jun-12 20:30N 35°28' E 139°42'2 3.5
2018-Jun-12 19:58N 35°30' E 139°42'0 0.0
2018-Jun-12 19:29N 35°30' E 139°42'0 0.0
2018-Jun-12 18:59N 35°30' E 139°42'0 0.0
2018-Jun-12 18:29N 35°30' E 139°42'0 0.0
2018-Jun-12 17:59N 35°30' E 139°42'0 0.0
2018-Jun-12 17:25N 35°30' E 139°42'0 0.0
2018-Jun-12 16:58N 35°30' E 139°42'0 0.0
2018-Jun-12 16:29N 35°30' E 139°42'0 0.0
2018-Jun-12 15:59N 35°30' E 139°42'0 0.0
2018-Jun-12 15:29N 35°30' E 139°42'0 0.0
2018-Jun-12 14:59N 35°30' E 139°42'0 0.0
2018-Jun-12 14:28N 35°30' E 139°42'0 0.0
2018-Jun-12 13:59N 35°30' E 139°42'0 0.0
2018-Jun-12 13:29N 35°30' E 139°42'0 0.0
2018-Jun-12 12:59N 35°30' E 139°42'0 0.0
2018-Jun-12 12:29N 35°30' E 139°42'0 0.0
2018-Jun-12 11:58N 35°30' E 139°42'0 0.0
2018-Jun-12 11:29N 35°30' E 139°42'0 0.0
2018-Jun-12 10:56N 35°30' E 139°42'0 0.0
2018-Jun-12 10:29N 35°30' E 139°42'0 0.0
2018-Jun-12 09:59N 35°30' E 139°42'0 0.0
2018-Jun-12 09:28N 35°30' E 139°42'0 0.0
2018-Jun-12 08:58N 35°30' E 139°42'0 0.0
2018-Jun-12 08:28N 35°30' E 139°42'0 0.0
2018-Jun-12 07:59N 35°30' E 139°42'0 0.0
2018-Jun-12 07:29N 35°30' E 139°42'0 0.0
2018-Jun-12 06:59N 35°30' E 139°42'0 0.0
2018-Jun-12 06:28N 35°30' E 139°42'0 0.0
2018-Jun-12 05:58N 35°30' E 139°42'0 0.0
2018-Jun-12 05:28N 35°30' E 139°42'0 0.0
2018-Jun-12 04:58N 35°30' E 139°42'0 0.0
2018-Jun-12 04:28N 35°30' E 139°42'0 0.0
2018-Jun-12 03:58N 35°30' E 139°42'0 0.0
2018-Jun-12 03:28N 35°30' E 139°42'0 0.0
2018-Jun-12 02:59N 35°30' E 139°42'0 0.0
2018-Jun-12 02:28N 35°30' E 139°42'0 0.0
2018-Jun-12 01:58N 35°30' E 139°42'0 0.0
2018-Jun-12 01:29N 35°30' E 139°42'0 0.0
2018-Jun-12 00:59N 35°30' E 139°42'0 0.0
2018-Jun-12 00:28N 35°30' E 139°42'0 0.0
2018-Jun-11 23:58N 35°30' E 139°42'0 0.0
2018-Jun-11 23:28N 35°30' E 139°42'0 0.0
2018-Jun-11 22:58N 35°30' E 139°42'0 0.0
2018-Jun-11 22:28N 35°30' E 139°42'0 0.0
2018-Jun-11 21:58N 35°30' E 139°42'0 0.0
2018-Jun-11 21:28N 35°30' E 139°42'0 0.0
2018-Jun-11 20:58N 35°30' E 139°42'0 0.0
2018-Jun-11 20:28N 35°30' E 139°42'0 0.0
2018-Jun-11 19:58N 35°30' E 139°42'0 0.0
2018-Jun-11 19:28N 35°30' E 139°42'0 0.0
2018-Jun-11 18:58N 35°30' E 139°42'0 0.0
2018-Jun-11 18:28N 35°30' E 139°42'0 0.0
2018-Jun-11 17:55N 35°30' E 139°42'0 0.0
2018-Jun-11 17:28N 35°30' E 139°42'0 0.0
2018-Jun-11 16:58N 35°30' E 139°42'0 0.0
2018-Jun-11 16:28N 35°30' E 139°42'0 0.0
2018-Jun-11 15:58N 35°30' E 139°42'0 0.0
2018-Jun-11 15:28N 35°30' E 139°42'0 0.0
2018-Jun-11 14:58N 35°30' E 139°42'0 0.0
2018-Jun-11 14:28N 35°30' E 139°42'0 0.0
2018-Jun-11 13:58N 35°30' E 139°42'0 0.0
2018-Jun-11 13:28N 35°30' E 139°42'0 0.0
2018-Jun-11 12:58N 35°30' E 139°42'0 0.0
2018-Jun-11 12:28N 35°30' E 139°42'0 0.0
2018-Jun-11 11:58N 35°30' E 139°42'0 0.0
2018-Jun-11 11:28N 35°30' E 139°42'0 0.0
2018-Jun-11 10:58N 35°30' E 139°42'0 0.0
2018-Jun-11 10:28N 35°30' E 139°42'0 0.0
2018-Jun-11 09:58N 35°30' E 139°42'0 0.0
2018-Jun-11 09:19N 35°30' E 139°42'0 0.0
2018-Jun-11 08:58N 35°30' E 139°42'0 0.0
2018-Jun-11 08:28N 35°30' E 139°42'0 0.0
2018-Jun-11 07:58N 35°30' E 139°42'0 0.0
2018-Jun-11 07:28N 35°30' E 139°42'0 0.0
2018-Jun-11 06:58N 35°30' E 139°42'0 0.0
2018-Jun-11 06:28N 35°30' E 139°42'0 0.0
2018-Jun-11 05:58N 35°30' E 139°42'0 0.0
2018-Jun-11 05:28N 35°30' E 139°42'0 0.0
2018-Jun-11 04:58N 35°30' E 139°42'0 0.0
2018-Jun-11 04:28N 35°30' E 139°42'0 0.0
2018-Jun-11 03:58N 35°30' E 139°42'0 0.0
2018-Jun-11 03:28N 35°30' E 139°42'0 0.0
2018-Jun-11 02:58N 35°30' E 139°42'0 0.0
2018-Jun-11 02:28N 35°30' E 139°42'0 0.0
2018-Jun-11 01:58N 35°30' E 139°42'0 0.0
2018-Jun-11 01:28N 35°30' E 139°42'0 0.0
2018-Jun-11 00:58N 35°30' E 139°42'0 0.0
2018-Jun-11 00:28N 35°30' E 139°42'0 0.0
2018-Jun-10 23:58N 35°30' E 139°42'0 0.0
2018-Jun-10 23:28N 35°30' E 139°42'0 0.0
2018-Jun-10 22:58N 35°30' E 139°42'0 0.0
2018-Jun-10 22:28N 35°30' E 139°42'0 0.0
2018-Jun-10 21:58N 35°30' E 139°42'0 0.0
2018-Jun-10 21:28N 35°30' E 139°42'0 0.0
2018-Jun-10 20:58N 35°30' E 139°42'0 0.0
2018-Jun-10 20:28N 35°30' E 139°42'0 0.0
2018-Jun-10 19:58N 35°30' E 139°42'0 0.0
2018-Jun-10 19:28N 35°30' E 139°42'0 0.0
2018-Jun-10 18:58N 35°30' E 139°42'0 0.0
2018-Jun-10 18:28N 35°30' E 139°42'0 0.0
2018-Jun-10 17:58N 35°30' E 139°42'0 0.0
2018-Jun-10 17:28N 35°30' E 139°42'0 0.0
2018-Jun-10 16:58N 35°30' E 139°42'0 0.0
2018-Jun-10 16:28N 35°30' E 139°42'0 0.0
2018-Jun-10 15:58N 35°30' E 139°42'0 0.0
2018-Jun-10 15:28N 35°30' E 139°42'0 0.0
2018-Jun-10 14:58N 35°30' E 139°42'0 0.0
2018-Jun-10 14:28N 35°30' E 139°42'0 0.0
2018-Jun-10 13:28N 35°30' E 139°42'0 0.0
2018-Jun-10 12:58N 35°30' E 139°42'0 0.0
2018-Jun-10 12:28N 35°30' E 139°42'0 0.0
2018-Jun-10 11:58N 35°30' E 139°42'0 0.0
2018-Jun-10 11:28N 35°30' E 139°42'0 0.0
2018-Jun-10 10:58N 35°30' E 139°42'0 0.0
2018-Jun-10 10:28N 35°30' E 139°42'0 0.0
2018-Jun-10 09:55N 35°30' E 139°42'0 0.0
2018-Jun-10 09:28N 35°30' E 139°42'0 0.0
2018-Jun-10 08:58N 35°30' E 139°42'0 0.0
2018-Jun-10 08:25N 35°30' E 139°42'0 0.0
2018-Jun-10 07:58N 35°30' E 139°42'0 0.0
2018-Jun-10 07:28N 35°30' E 139°42'0 0.0
2018-Jun-10 06:55N 35°30' E 139°42'0 0.0
2018-Jun-10 06:28N 35°30' E 139°42'0 0.0
2018-Jun-10 05:58N 35°30' E 139°42'0 0.0
2018-Jun-10 05:28N 35°30' E 139°42'0 0.0
2018-Jun-10 04:58N 35°30' E 139°42'0 0.0
2018-Jun-10 04:28N 35°30' E 139°42'0 0.0
2018-Jun-10 03:58N 35°30' E 139°42'0 0.0
2018-Jun-10 03:25N 35°30' E 139°42'0 0.0
2018-Jun-10 02:58N 35°30' E 139°42'0 0.0
2018-Jun-10 02:28N 35°30' E 139°42'0 0.0
2018-Jun-10 01:58N 35°30' E 139°42'0 0.0
2018-Jun-10 01:28N 35°30' E 139°42'0 0.0
2018-Jun-10 00:58N 35°30' E 139°42'0 0.0
2018-Jun-10 00:28N 35°30' E 139°42'0 0.0
2018-Jun-09 23:58N 35°30' E 139°42'0 0.0
2018-Jun-09 23:28N 35°30' E 139°42'0 0.0
2018-Jun-09 22:55N 35°30' E 139°42'0 0.0
2018-Jun-09 22:28N 35°30' E 139°42'0 0.0
2018-Jun-09 21:58N 35°30' E 139°42'0 0.0
2018-Jun-09 21:28N 35°30' E 139°42'0 0.0
2018-Jun-09 20:58N 35°30' E 139°42'0 0.0
2018-Jun-09 20:28N 35°30' E 139°42'0 0.0
2018-Jun-09 19:58N 35°30' E 139°42'0 0.0
2018-Jun-09 19:28N 35°30' E 139°42'0 0.0
2018-Jun-09 18:58N 35°30' E 139°42'0 0.0
2018-Jun-09 18:28N 35°30' E 139°42'0 0.0
2018-Jun-09 17:58N 35°30' E 139°42'0 0.0
2018-Jun-09 17:28N 35°30' E 139°42'0 0.0
2018-Jun-09 16:58N 35°30' E 139°42'0 0.0
2018-Jun-09 16:28N 35°30' E 139°42'0 0.0
2018-Jun-09 15:58N 35°30' E 139°42'0 0.0
2018-Jun-09 15:28N 35°30' E 139°42'0 0.0
2018-Jun-09 14:28N 35°30' E 139°42'0 0.0
2018-Jun-09 13:58N 35°30' E 139°42'0 0.0
2018-Jun-09 13:28N 35°30' E 139°42'0 0.0
2018-Jun-09 12:58N 35°30' E 139°42'0 0.0
2018-Jun-09 12:28N 35°30' E 139°42'0 0.0
2018-Jun-09 11:58N 35°30' E 139°42'0 0.0
2018-Jun-09 11:28N 35°30' E 139°42'0 0.0
2018-Jun-09 10:58N 35°30' E 139°42'0 0.0
2018-Jun-09 10:28N 35°30' E 139°42'0 0.0
2018-Jun-09 09:58N 35°30' E 139°42'0 0.0
2018-Jun-09 09:28N 35°30' E 139°42'0 0.0
2018-Jun-09 08:58N 35°30' E 139°42'0 0.0
2018-Jun-09 08:28N 35°30' E 139°42'0 0.0
2018-Jun-09 07:58N 35°30' E 139°42'0 0.0
2018-Jun-09 07:28N 35°30' E 139°42'0 0.0
2018-Jun-09 06:58N 35°30' E 139°42'0 0.0
2018-Jun-09 06:28N 35°30' E 139°42'0 0.0
2018-Jun-09 05:58N 35°30' E 139°42'0 0.0
2018-Jun-09 05:28N 35°30' E 139°42'0 0.0
2018-Jun-09 04:58N 35°30' E 139°42'0 0.0
2018-Jun-09 04:28N 35°30' E 139°42'0 0.0
2018-Jun-09 03:58N 35°30' E 139°42'0 0.0
2018-Jun-09 03:28N 35°30' E 139°42'0 0.0
2018-Jun-09 02:58N 35°30' E 139°42'0 0.0
2018-Jun-09 02:28N 35°30' E 139°42'0 0.0
2018-Jun-09 01:58N 35°30' E 139°42'0 0.0
2018-Jun-09 01:28N 35°30' E 139°42'0 0.0
2018-Jun-09 00:58N 35°30' E 139°42'0 0.0
2018-Jun-09 00:28N 35°30' E 139°42'0 0.0
2018-Jun-08 23:58N 35°30' E 139°42'0 0.0
2018-Jun-08 23:28N 35°30' E 139°42'0 0.0
2018-Jun-08 22:58N 35°30' E 139°42'0 0.0
2018-Jun-08 22:28N 35°30' E 139°42'0 0.0
2018-Jun-08 21:58N 35°30' E 139°42'0 0.0
2018-Jun-08 21:28N 35°30' E 139°42'0 0.0
2018-Jun-08 20:52N 35°30' E 139°42'0 0.0
2018-Jun-08 20:28N 35°30' E 139°42'0 0.0
2018-Jun-08 19:58N 35°30' E 139°42'0 0.0
2018-Jun-08 19:25N 35°30' E 139°42'0 0.0
2018-Jun-08 18:58N 35°30' E 139°42'0 0.0
2018-Jun-08 18:28N 35°30' E 139°42'0 0.0
2018-Jun-08 17:58N 35°30' E 139°42'0 0.0
2018-Jun-08 17:28N 35°30' E 139°42'0 0.0
2018-Jun-08 16:58N 35°30' E 139°42'0 0.0
2018-Jun-08 16:28N 35°30' E 139°42'0 0.0
2018-Jun-08 15:58N 35°30' E 139°42'0 0.0
2018-Jun-08 15:28N 35°30' E 139°42'0 0.0
2018-Jun-08 14:58N 35°30' E 139°42'0 0.0
2018-Jun-08 14:28N 35°30' E 139°42'0 0.0
2018-Jun-08 13:58N 35°30' E 139°42'0 0.0
2018-Jun-08 13:28N 35°30' E 139°42'0 0.0
2018-Jun-08 12:58N 35°30' E 139°42'0 0.0
2018-Jun-08 12:28N 35°30' E 139°42'0 0.0
2018-Jun-08 11:58N 35°30' E 139°42'0 0.0
2018-Jun-08 11:28N 35°30' E 139°42'0 0.0
2018-Jun-08 10:58N 35°30' E 139°42'0 0.0
2018-Jun-08 10:28N 35°30' E 139°42'0 0.0
2018-Jun-08 09:58N 35°30' E 139°42'0 0.0
2018-Jun-08 09:28N 35°30' E 139°42'0 0.0
2018-Jun-08 08:58N 35°30' E 139°42'0 0.0
2018-Jun-08 08:28N 35°30' E 139°42'0 0.0
2018-Jun-08 07:58N 35°30' E 139°42'0 0.0
2018-Jun-08 07:28N 35°30' E 139°42'0 0.0
2018-Jun-08 06:58N 35°30' E 139°42'0 0.0
2018-Jun-08 06:28N 35°30' E 139°42'0 0.0
2018-Jun-08 05:58N 35°30' E 139°42'0 0.0
2018-Jun-08 05:28N 35°30' E 139°42'0 0.0
2018-Jun-08 04:58N 35°30' E 139°42'0 0.0
2018-Jun-08 04:30N 35°30' E 139°42'2 3.9
2018-Jun-08 04:00N 35°30' E 139°45'510.3
2018-Jun-08 03:29N 35°30' E 139°51'6 4.5
2018-Jun-08 02:12N 35°28' E 139°58'5 3.7
2018-Jun-08 00:53N 35°28' E 139°52'2 4.2
2018-Jun-08 00:27N 35°27' E 139°51'2 4.3
2018-Jun-08 00:00N 35°25' E 139°49'2 4.2
2018-Jun-07 23:30N 35°23' E 139°48'2 4.1
2018-Jun-07 23:00N 35°21' E 139°47'0 0.8
2018-Jun-07 22:30N 35°21' E 139°47'0 0.2
2018-Jun-07 22:01N 35°21' E 139°47'0 0.4
2018-Jun-07 21:30N 35°21' E 139°47'510.5
2018-Jun-07 21:01N 35°26' E 139°44'4 8.2
2018-Jun-07 20:30N 35°30' E 139°43'0 0.5
2018-Jun-07 19:58N 35°30' E 139°42'0 0.0
2018-Jun-07 19:25N 35°30' E 139°42'0 0.0
2018-Jun-07 18:58N 35°30' E 139°42'0 0.0
2018-Jun-07 18:28N 35°30' E 139°42'0 0.0
2018-Jun-07 17:58N 35°30' E 139°42'0 0.0
2018-Jun-07 17:28N 35°30' E 139°42'0 0.0
2018-Jun-07 16:58N 35°30' E 139°42'0 0.0
2018-Jun-07 16:28N 35°30' E 139°42'0 0.0
2018-Jun-07 15:58N 35°30' E 139°42'0 0.0
2018-Jun-07 15:28N 35°30' E 139°42'0 0.0
2018-Jun-07 14:58N 35°30' E 139°42'0 0.0
2018-Jun-07 14:28N 35°30' E 139°42'0 0.0
2018-Jun-07 13:58N 35°30' E 139°42'0 0.0
2018-Jun-07 13:28N 35°30' E 139°42'0 0.0
2018-Jun-07 12:58N 35°30' E 139°42'0 0.0
2018-Jun-07 12:25N 35°30' E 139°42'0 0.0
2018-Jun-07 11:58N 35°30' E 139°42'0 0.0
2018-Jun-07 11:28N 35°30' E 139°42'0 0.0
2018-Jun-07 10:58N 35°30' E 139°42'0 0.0
2018-Jun-07 10:28N 35°30' E 139°42'0 0.0
2018-Jun-07 09:58N 35°30' E 139°42'0 0.0
2018-Jun-07 09:28N 35°30' E 139°42'0 0.0
2018-Jun-07 08:58N 35°30' E 139°42'0 0.0
2018-Jun-07 08:25N 35°30' E 139°42'0 0.0
2018-Jun-07 07:58N 35°30' E 139°42'0 0.0
2018-Jun-07 07:28N 35°30' E 139°42'0 0.0
2018-Jun-07 06:58N 35°30' E 139°42'0 0.0
2018-Jun-07 06:28N 35°30' E 139°42'0 0.0
2018-Jun-07 05:58N 35°30' E 139°42'0 0.0
2018-Jun-07 05:28N 35°30' E 139°42'0 0.0
2018-Jun-07 04:58N 35°30' E 139°42'0 0.0
2018-Jun-07 04:25N 35°30' E 139°42'0 0.0
2018-Jun-07 03:55N 35°30' E 139°42'0 0.0
2018-Jun-07 03:28N 35°30' E 139°42'0 0.0
2018-Jun-07 02:58N 35°30' E 139°42'0 0.0
2018-Jun-07 02:28N 35°30' E 139°42'0 0.0
2018-Jun-07 01:58N 35°30' E 139°42'0 0.0
2018-Jun-07 01:28N 35°30' E 139°42'0 0.0
2018-Jun-07 00:58N 35°30' E 139°42'0 0.0
2018-Jun-07 00:28N 35°30' E 139°42'0 0.0
2018-Jun-06 23:58N 35°30' E 139°42'0 0.0
2018-Jun-06 23:28N 35°30' E 139°42'0 0.0
2018-Jun-06 22:55N 35°30' E 139°42'0 0.0
2018-Jun-06 22:28N 35°30' E 139°42'0 0.0
2018-Jun-06 21:58N 35°30' E 139°42'0 0.0
2018-Jun-06 21:28N 35°30' E 139°42'0 0.0
2018-Jun-06 20:55N 35°30' E 139°42'0 0.0
2018-Jun-06 20:28N 35°30' E 139°42'0 0.0
2018-Jun-06 19:58N 35°30' E 139°42'0 0.0
2018-Jun-06 19:28N 35°30' E 139°42'0 0.0
2018-Jun-06 18:58N 35°30' E 139°42'0 0.0
2018-Jun-06 18:28N 35°30' E 139°42'0 0.0
2018-Jun-06 17:58N 35°30' E 139°42'0 0.0
2018-Jun-06 17:28N 35°30' E 139°42'0 0.0
2018-Jun-06 16:58N 35°30' E 139°42'0 0.0
2018-Jun-06 16:28N 35°30' E 139°42'0 0.0
2018-Jun-06 15:58N 35°30' E 139°42'0 0.0
2018-Jun-06 15:25N 35°30' E 139°42'0 0.0
2018-Jun-06 14:58N 35°30' E 139°42'0 0.0
2018-Jun-06 14:28N 35°30' E 139°42'0 0.0
2018-Jun-06 13:58N 35°30' E 139°42'0 0.0
2018-Jun-06 13:28N 35°30' E 139°42'0 0.0
2018-Jun-06 12:58N 35°30' E 139°42'0 0.0
2018-Jun-06 12:28N 35°30' E 139°42'0 0.0
2018-Jun-06 11:58N 35°30' E 139°42'0 0.0
2018-Jun-06 11:28N 35°30' E 139°42'0 0.0
2018-Jun-06 10:58N 35°30' E 139°42'0 0.0
2018-Jun-06 10:28N 35°30' E 139°42'0 0.0
2018-Jun-06 09:58N 35°30' E 139°42'0 0.0
2018-Jun-06 09:28N 35°30' E 139°42'0 0.0
2018-Jun-06 08:55N 35°30' E 139°42'0 0.0
2018-Jun-06 08:28N 35°30' E 139°42'0 0.0
2018-Jun-06 07:58N 35°30' E 139°42'0 0.0
2018-Jun-06 07:28N 35°30' E 139°42'0 0.0
2018-Jun-06 06:58N 35°30' E 139°42'0 0.0
2018-Jun-06 06:28N 35°30' E 139°42'0 0.0
2018-Jun-06 05:58N 35°30' E 139°42'0 0.0
2018-Jun-06 05:28N 35°30' E 139°42'0 0.0
2018-Jun-06 04:58N 35°30' E 139°42'0 0.0
2018-Jun-06 04:28N 35°30' E 139°42'0 0.0
2018-Jun-06 03:58N 35°30' E 139°42'0 0.0
2018-Jun-06 03:28N 35°30' E 139°42'0 0.0
2018-Jun-06 02:58N 35°30' E 139°42'0 0.0
2018-Jun-06 02:28N 35°30' E 139°42'0 0.0
2018-Jun-06 01:58N 35°30' E 139°42'0 0.0
2018-Jun-06 01:28N 35°30' E 139°42'0 0.0
2018-Jun-06 00:58N 35°30' E 139°42'0 0.0
2018-Jun-06 00:28N 35°30' E 139°42'0 0.0
2018-Jun-05 23:55N 35°30' E 139°42'0 0.0
2018-Jun-05 23:25N 35°30' E 139°42'0 0.0
2018-Jun-05 22:58N 35°30' E 139°42'0 0.0
2018-Jun-05 22:28N 35°30' E 139°42'0 0.0
2018-Jun-05 21:58N 35°30' E 139°42'0 0.0
2018-Jun-05 21:28N 35°30' E 139°42'0 0.0
2018-Jun-05 20:58N 35°30' E 139°42'0 0.0
2018-Jun-05 20:28N 35°30' E 139°42'0 0.0
2018-Jun-05 19:55N 35°30' E 139°42'0 0.0
2018-Jun-05 19:28N 35°30' E 139°42'0 0.0
2018-Jun-05 18:58N 35°30' E 139°42'0 0.0
2018-Jun-05 18:25N 35°30' E 139°42'0 0.0
2018-Jun-05 17:58N 35°30' E 139°42'0 0.0
2018-Jun-05 17:28N 35°30' E 139°42'0 0.0
2018-Jun-05 16:58N 35°30' E 139°42'0 0.0
2018-Jun-05 16:28N 35°30' E 139°42'0 0.0
2018-Jun-05 15:58N 35°30' E 139°42'0 0.0
2018-Jun-05 15:28N 35°30' E 139°42'0 0.0
2018-Jun-05 14:58N 35°30' E 139°42'0 0.0
2018-Jun-05 14:28N 35°30' E 139°42'0 0.0
2018-Jun-05 13:58N 35°30' E 139°42'0 0.0
2018-Jun-05 13:28N 35°30' E 139°42'0 0.0
2018-Jun-05 12:58N 35°30' E 139°42'0 0.0
2018-Jun-05 12:28N 35°30' E 139°42'0 0.0
2018-Jun-05 11:58N 35°30' E 139°42'0 0.0
2018-Jun-05 11:28N 35°30' E 139°42'0 0.0
2018-Jun-05 10:58N 35°30' E 139°42'0 0.0
2018-Jun-05 10:28N 35°30' E 139°42'0 0.0
2018-Jun-05 09:58N 35°30' E 139°42'0 0.0
2018-Jun-05 09:28N 35°30' E 139°42'0 0.0
2018-Jun-05 08:58N 35°30' E 139°42'0 0.0
2018-Jun-05 08:28N 35°30' E 139°42'0 0.0
2018-Jun-05 07:58N 35°30' E 139°42'0 0.0
2018-Jun-05 07:28N 35°30' E 139°42'0 0.0
2018-Jun-05 06:58N 35°30' E 139°42'0 0.0
2018-Jun-05 06:28N 35°30' E 139°42'0 0.0
2018-Jun-05 05:58N 35°30' E 139°42'0 0.0
2018-Jun-05 05:30N 35°30' E 139°42'0 0.0
2018-Jun-05 04:59N 35°30' E 139°42'0 0.0
2018-Jun-05 04:30N 35°30' E 139°42'0 0.0
2018-Jun-05 04:00N 35°30' E 139°42'0 0.0
2018-Jun-05 03:31N 35°30' E 139°42'0 0.0
2018-Jun-05 02:59N 35°30' E 139°42'0 0.0
2018-Jun-05 02:30N 35°30' E 139°42'0 0.0
2018-Jun-05 02:01N 35°30' E 139°42'0 0.0
2018-Jun-05 01:30N 35°30' E 139°42'0 0.0
2018-Jun-05 01:01N 35°30' E 139°42'0 0.0
2018-Jun-05 00:31N 35°30' E 139°42'0 0.0
2018-Jun-04 23:59N 35°30' E 139°42'0 0.0
2018-Jun-04 23:31N 35°30' E 139°42'0 0.0
2018-Jun-04 23:00N 35°30' E 139°42'0 0.0
2018-Jun-04 22:30N 35°30' E 139°42'0 0.0
2018-Jun-04 21:58N 35°30' E 139°42'0 0.0
2018-Jun-04 21:30N 35°30' E 139°42'0 0.0
2018-Jun-04 20:59N 35°30' E 139°42'0 0.0
2018-Jun-04 20:30N 35°30' E 139°42'0 0.0
2018-Jun-04 20:00N 35°30' E 139°42'0 0.0
2018-Jun-04 19:30N 35°30' E 139°42'0 0.0
2018-Jun-04 19:01N 35°30' E 139°42'0 0.0
2018-Jun-04 18:30N 35°30' E 139°42'0 0.0
2018-Jun-04 18:00N 35°30' E 139°42'0 0.0
2018-Jun-04 17:30N 35°30' E 139°42'0 0.0
2018-Jun-04 17:00N 35°30' E 139°42'0 0.0
2018-Jun-04 16:30N 35°30' E 139°42'0 0.0
2018-Jun-04 16:00N 35°30' E 139°42'0 0.0
2018-Jun-04 15:30N 35°30' E 139°42'0 0.0
2018-Jun-04 14:57N 35°30' E 139°42'0 0.0
2018-Jun-04 14:30N 35°30' E 139°42'0 0.0
2018-Jun-04 14:01N 35°30' E 139°42'0 0.0
2018-Jun-04 13:29N 35°30' E 139°42'0 0.0
2018-Jun-04 13:00N 35°30' E 139°42'0 0.0
2018-Jun-04 12:28N 35°30' E 139°42'0 0.0
2018-Jun-04 12:00N 35°30' E 139°42'0 0.0
2018-Jun-04 11:31N 35°30' E 139°42'0 0.0
2018-Jun-04 11:00N 35°30' E 139°42'0 0.0
2018-Jun-04 10:29N 35°30' E 139°42'0 0.0
2018-Jun-04 10:00N 35°30' E 139°42'0 0.0
2018-Jun-04 09:30N 35°30' E 139°42'0 0.0
2018-Jun-04 08:59N 35°30' E 139°42'0 0.0
2018-Jun-04 08:29N 35°30' E 139°42'0 0.0
2018-Jun-04 08:00N 35°30' E 139°42'0 0.0
2018-Jun-04 07:29N 35°30' E 139°42'0 0.0
2018-Jun-04 06:59N 35°30' E 139°42'0 0.0
2018-Jun-04 06:29N 35°30' E 139°42'0 0.0
2018-Jun-04 06:00N 35°30' E 139°42'0 0.0
2018-Jun-04 05:30N 35°30' E 139°42'0 0.0
2018-Jun-04 05:00N 35°30' E 139°42'0 0.0
2018-Jun-04 04:30N 35°30' E 139°42'0 0.0
2018-Jun-04 03:58N 35°30' E 139°42'0 0.0
2018-Jun-04 03:30N 35°30' E 139°42'0 0.0
2018-Jun-04 03:01N 35°30' E 139°42'0 0.0
2018-Jun-04 02:30N 35°30' E 139°42'0 0.0
2018-Jun-04 01:59N 35°30' E 139°42'0 0.0
2018-Jun-04 01:27N 35°30' E 139°42'0 0.0
2018-Jun-04 01:01N 35°30' E 139°42'0 0.0
2018-Jun-04 00:28N 35°30' E 139°42'0 0.0
2018-Jun-03 23:59N 35°30' E 139°42'0 0.0
2018-Jun-03 23:30N 35°30' E 139°42'0 0.0
2018-Jun-03 23:01N 35°30' E 139°42'0 0.0
2018-Jun-03 22:30N 35°30' E 139°42'0 0.0
2018-Jun-03 22:00N 35°30' E 139°42'0 0.0
2018-Jun-03 21:30N 35°30' E 139°42'0 0.0
2018-Jun-03 21:00N 35°30' E 139°42'0 0.0
2018-Jun-03 20:30N 35°30' E 139°42'0 0.0
2018-Jun-03 20:00N 35°30' E 139°42'0 0.0
2018-Jun-03 19:30N 35°30' E 139°42'0 0.0
2018-Jun-03 19:00N 35°30' E 139°42'0 0.0
2018-Jun-03 18:29N 35°30' E 139°42'0 0.0
2018-Jun-03 18:00N 35°30' E 139°42'0 0.0
2018-Jun-03 17:30N 35°30' E 139°42'0 0.0
2018-Jun-03 16:55N 35°30' E 139°42'0 0.0
2018-Jun-03 16:29N 35°30' E 139°42'0 0.0
2018-Jun-03 16:00N 35°30' E 139°42'0 0.0
2018-Jun-03 15:30N 35°30' E 139°42'0 0.0
2018-Jun-03 15:01N 35°30' E 139°42'0 0.0
2018-Jun-03 14:29N 35°30' E 139°42'0 0.0
2018-Jun-03 13:59N 35°30' E 139°42'0 0.0
2018-Jun-03 13:30N 35°30' E 139°42'0 0.0
2018-Jun-03 13:00N 35°30' E 139°42'0 0.0
2018-Jun-03 12:29N 35°30' E 139°42'0 0.0
2018-Jun-03 12:00N 35°30' E 139°42'0 0.0
2018-Jun-03 11:31N 35°30' E 139°42'0 0.0
2018-Jun-03 11:00N 35°30' E 139°42'0 0.0
2018-Jun-03 10:30N 35°30' E 139°42'0 0.0
2018-Jun-03 09:59N 35°30' E 139°42'0 0.0
2018-Jun-03 09:30N 35°30' E 139°42'0 0.0
2018-Jun-03 09:00N 35°30' E 139°42'0 0.0
2018-Jun-03 08:30N 35°30' E 139°42'0 0.0
2018-Jun-03 08:00N 35°30' E 139°42'0 0.0
2018-Jun-03 07:30N 35°30' E 139°42'0 0.0
2018-Jun-03 07:01N 35°30' E 139°42'0 0.0
2018-Jun-03 06:30N 35°30' E 139°42'0 0.6
2018-Jun-03 06:00N 35°30' E 139°43'5 9.7
2018-Jun-03 05:30N 35°25' E 139°42'611.1
2018-Jun-03 05:00N 35°19' E 139°42'610.3
2018-Jun-03 04:29N 35°14' E 139°45'  
Track history (hours):
 
Tides and Currents Weather Stations Pressure Air Temp Water Temp Dewpoint Dewpoint Depression Visibility Wind Speed Wind Dir Waves Ship Positions

Kaihou

Last reported at 2018-Jun-13 04:28 UTC. Time now 2018-Jun-20 22:47 UTC.
Position N 35°10' E 139°44'.

Length 33 m; draft 3.8 m.

Type: Towing. MMSI: 431402046.

Date/timePositionNaut miles runAvg speedWind from/ knotsBaromVisibWave heightAir tempDewpointWater temp
2018-Jun-13 04:28N 35°10' E 139°44'3 6.4
2018-Jun-13 04:00N 35°13' E 139°45'6 5.8
2018-Jun-13 03:02N 35°18' E 139°43'0 7.0
2018-Jun-13 02:59N 35°19' E 139°43'3 5.7
2018-Jun-13 02:24N 35°22' E 139°41'2 5.5
2018-Jun-13 02:00N 35°23' E 139°39'1 2.2
2018-Jun-13 01:30N 35°23' E 139°38'0 0.0
2018-Jun-13 01:00N 35°23' E 139°38'0 0.3
2018-Jun-13 00:30N 35°23' E 139°38'0 0.0
2018-Jun-13 00:00N 35°23' E 139°38'0 0.1
2018-Jun-12 23:30N 35°23' E 139°38'0 0.1
2018-Jun-12 23:00N 35°23' E 139°38'0 0.0
2018-Jun-12 22:30N 35°23' E 139°38'0 0.0
2018-Jun-12 22:00N 35°23' E 139°38'0 0.1
2018-Jun-12 21:30N 35°23' E 139°38'2 3.6
2018-Jun-12 21:00N 35°23' E 139°40'5 9.8
2018-Jun-12 20:30N 35°28' E 139°42'2 3.5
2018-Jun-12 19:58N 35°30' E 139°42'0 0.0
2018-Jun-12 19:29N 35°30' E 139°42'0 0.0
2018-Jun-12 18:59N 35°30' E 139°42'0 0.0
2018-Jun-12 18:29N 35°30' E 139°42'0 0.0
2018-Jun-12 17:59N 35°30' E 139°42'0 0.0
2018-Jun-12 17:25N 35°30' E 139°42'0 0.0
2018-Jun-12 16:58N 35°30' E 139°42'0 0.0
2018-Jun-12 16:29N 35°30' E 139°42'0 0.0
2018-Jun-12 15:59N 35°30' E 139°42'0 0.0
2018-Jun-12 15:29N 35°30' E 139°42'0 0.0
2018-Jun-12 14:59N 35°30' E 139°42'0 0.0
2018-Jun-12 14:28N 35°30' E 139°42'0 0.0
2018-Jun-12 13:59N 35°30' E 139°42'0 0.0
2018-Jun-12 13:29N 35°30' E 139°42'0 0.0
2018-Jun-12 12:59N 35°30' E 139°42'0 0.0
2018-Jun-12 12:29N 35°30' E 139°42'0 0.0
2018-Jun-12 11:58N 35°30' E 139°42'0 0.0
2018-Jun-12 11:29N 35°30' E 139°42'0 0.0
2018-Jun-12 10:56N 35°30' E 139°42'0 0.0
2018-Jun-12 10:29N 35°30' E 139°42'0 0.0
2018-Jun-12 09:59N 35°30' E 139°42'0 0.0
2018-Jun-12 09:28N 35°30' E 139°42'0 0.0
2018-Jun-12 08:58N 35°30' E 139°42'0 0.0
2018-Jun-12 08:28N 35°30' E 139°42'0 0.0
2018-Jun-12 07:59N 35°30' E 139°42'0 0.0
2018-Jun-12 07:29N 35°30' E 139°42'0 0.0
2018-Jun-12 06:59N 35°30' E 139°42'0 0.0
2018-Jun-12 06:28N 35°30' E 139°42'0 0.0
2018-Jun-12 05:58N 35°30' E 139°42'0 0.0
2018-Jun-12 05:28N 35°30' E 139°42'0 0.0
2018-Jun-12 04:58N 35°30' E 139°42'0 0.0
2018-Jun-12 04:28N 35°30' E 139°42'0 0.0
2018-Jun-12 03:58N 35°30' E 139°42'0 0.0
2018-Jun-12 03:28N 35°30' E 139°42'0 0.0
2018-Jun-12 02:59N 35°30' E 139°42'0 0.0
2018-Jun-12 02:28N 35°30' E 139°42'0 0.0
2018-Jun-12 01:58N 35°30' E 139°42'0 0.0
2018-Jun-12 01:29N 35°30' E 139°42'0 0.0
2018-Jun-12 00:59N 35°30' E 139°42'0 0.0
2018-Jun-12 00:28N 35°30' E 139°42'0 0.0
2018-Jun-11 23:58N 35°30' E 139°42'0 0.0
2018-Jun-11 23:28N 35°30' E 139°42'0 0.0
2018-Jun-11 22:58N 35°30' E 139°42'0 0.0
2018-Jun-11 22:28N 35°30' E 139°42'0 0.0
2018-Jun-11 21:58N 35°30' E 139°42'0 0.0
2018-Jun-11 21:28N 35°30' E 139°42'0 0.0
2018-Jun-11 20:58N 35°30' E 139°42'0 0.0
2018-Jun-11 20:28N 35°30' E 139°42'0 0.0
2018-Jun-11 19:58N 35°30' E 139°42'0 0.0
2018-Jun-11 19:28N 35°30' E 139°42'0 0.0
2018-Jun-11 18:58N 35°30' E 139°42'0 0.0
2018-Jun-11 18:28N 35°30' E 139°42'0 0.0
2018-Jun-11 17:55N 35°30' E 139°42'0 0.0
2018-Jun-11 17:28N 35°30' E 139°42'0 0.0
2018-Jun-11 16:58N 35°30' E 139°42'0 0.0
2018-Jun-11 16:28N 35°30' E 139°42'0 0.0
2018-Jun-11 15:58N 35°30' E 139°42'0 0.0
2018-Jun-11 15:28N 35°30' E 139°42'0 0.0
2018-Jun-11 14:58N 35°30' E 139°42'0 0.0
2018-Jun-11 14:28N 35°30' E 139°42'0 0.0
2018-Jun-11 13:58N 35°30' E 139°42'0 0.0
2018-Jun-11 13:28N 35°30' E 139°42'0 0.0
2018-Jun-11 12:58N 35°30' E 139°42'0 0.0
2018-Jun-11 12:28N 35°30' E 139°42'0 0.0
2018-Jun-11 11:58N 35°30' E 139°42'0 0.0
2018-Jun-11 11:28N 35°30' E 139°42'0 0.0
2018-Jun-11 10:58N 35°30' E 139°42'0 0.0
2018-Jun-11 10:28N 35°30' E 139°42'0 0.0
2018-Jun-11 09:58N 35°30' E 139°42'0 0.0
2018-Jun-11 09:19N 35°30' E 139°42'0 0.0
2018-Jun-11 08:58N 35°30' E 139°42'0 0.0
2018-Jun-11 08:28N 35°30' E 139°42'0 0.0
2018-Jun-11 07:58N 35°30' E 139°42'0 0.0
2018-Jun-11 07:28N 35°30' E 139°42'0 0.0
2018-Jun-11 06:58N 35°30' E 139°42'0 0.0
2018-Jun-11 06:28N 35°30' E 139°42'0 0.0
2018-Jun-11 05:58N 35°30' E 139°42'0 0.0
2018-Jun-11 05:28N 35°30' E 139°42'0 0.0
2018-Jun-11 04:58N 35°30' E 139°42'0 0.0
2018-Jun-11 04:28N 35°30' E 139°42'0 0.0
2018-Jun-11 03:58N 35°30' E 139°42'0 0.0
2018-Jun-11 03:28N 35°30' E 139°42'0 0.0
2018-Jun-11 02:58N 35°30' E 139°42'0 0.0
2018-Jun-11 02:28N 35°30' E 139°42'0 0.0
2018-Jun-11 01:58N 35°30' E 139°42'0 0.0
2018-Jun-11 01:28N 35°30' E 139°42'0 0.0
2018-Jun-11 00:58N 35°30' E 139°42'0 0.0
2018-Jun-11 00:28N 35°30' E 139°42'0 0.0
2018-Jun-10 23:58N 35°30' E 139°42'0 0.0
2018-Jun-10 23:28N 35°30' E 139°42'0 0.0
2018-Jun-10 22:58N 35°30' E 139°42'0 0.0
2018-Jun-10 22:28N 35°30' E 139°42'0 0.0
2018-Jun-10 21:58N 35°30' E 139°42'0 0.0
2018-Jun-10 21:28N 35°30' E 139°42'0 0.0
2018-Jun-10 20:58N 35°30' E 139°42'0 0.0
2018-Jun-10 20:28N 35°30' E 139°42'0 0.0
2018-Jun-10 19:58N 35°30' E 139°42'0 0.0
2018-Jun-10 19:28N 35°30' E 139°42'0 0.0
2018-Jun-10 18:58N 35°30' E 139°42'0 0.0
2018-Jun-10 18:28N 35°30' E 139°42'0 0.0
2018-Jun-10 17:58N 35°30' E 139°42'0 0.0
2018-Jun-10 17:28N 35°30' E 139°42'0 0.0
2018-Jun-10 16:58N 35°30' E 139°42'0 0.0
2018-Jun-10 16:28N 35°30' E 139°42'0 0.0
2018-Jun-10 15:58N 35°30' E 139°42'0 0.0
2018-Jun-10 15:28N 35°30' E 139°42'0 0.0
2018-Jun-10 14:58N 35°30' E 139°42'0 0.0
2018-Jun-10 14:28N 35°30' E 139°42'0 0.0
2018-Jun-10 13:28N 35°30' E 139°42'0 0.0
2018-Jun-10 12:58N 35°30' E 139°42'0 0.0
2018-Jun-10 12:28N 35°30' E 139°42'0 0.0
2018-Jun-10 11:58N 35°30' E 139°42'0 0.0
2018-Jun-10 11:28N 35°30' E 139°42'0 0.0
2018-Jun-10 10:58N 35°30' E 139°42'0 0.0
2018-Jun-10 10:28N 35°30' E 139°42'0 0.0
2018-Jun-10 09:55N 35°30' E 139°42'0 0.0
2018-Jun-10 09:28N 35°30' E 139°42'0 0.0
2018-Jun-10 08:58N 35°30' E 139°42'0 0.0
2018-Jun-10 08:25N 35°30' E 139°42'0 0.0
2018-Jun-10 07:58N 35°30' E 139°42'0 0.0
2018-Jun-10 07:28N 35°30' E 139°42'0 0.0
2018-Jun-10 06:55N 35°30' E 139°42'0 0.0
2018-Jun-10 06:28N 35°30' E 139°42'0 0.0
2018-Jun-10 05:58N 35°30' E 139°42'0 0.0
2018-Jun-10 05:28N 35°30' E 139°42'0 0.0
2018-Jun-10 04:58N 35°30' E 139°42'0 0.0
2018-Jun-10 04:28N 35°30' E 139°42'0 0.0
2018-Jun-10 03:58N 35°30' E 139°42'0 0.0
2018-Jun-10 03:25N 35°30' E 139°42'0 0.0
2018-Jun-10 02:58N 35°30' E 139°42'0 0.0
2018-Jun-10 02:28N 35°30' E 139°42'0 0.0
2018-Jun-10 01:58N 35°30' E 139°42'0 0.0
2018-Jun-10 01:28N 35°30' E 139°42'0 0.0
2018-Jun-10 00:58N 35°30' E 139°42'0 0.0
2018-Jun-10 00:28N 35°30' E 139°42'0 0.0
2018-Jun-09 23:58N 35°30' E 139°42'0 0.0
2018-Jun-09 23:28N 35°30' E 139°42'0 0.0
2018-Jun-09 22:55N 35°30' E 139°42'0 0.0
2018-Jun-09 22:28N 35°30' E 139°42'0 0.0
2018-Jun-09 21:58N 35°30' E 139°42'0 0.0
2018-Jun-09 21:28N 35°30' E 139°42'0 0.0
2018-Jun-09 20:58N 35°30' E 139°42'0 0.0
2018-Jun-09 20:28N 35°30' E 139°42'0 0.0
2018-Jun-09 19:58N 35°30' E 139°42'0 0.0
2018-Jun-09 19:28N 35°30' E 139°42'0 0.0
2018-Jun-09 18:58N 35°30' E 139°42'0 0.0
2018-Jun-09 18:28N 35°30' E 139°42'0 0.0
2018-Jun-09 17:58N 35°30' E 139°42'0 0.0
2018-Jun-09 17:28N 35°30' E 139°42'0 0.0
2018-Jun-09 16:58N 35°30' E 139°42'0 0.0
2018-Jun-09 16:28N 35°30' E 139°42'0 0.0
2018-Jun-09 15:58N 35°30' E 139°42'0 0.0
2018-Jun-09 15:28N 35°30' E 139°42'0 0.0
2018-Jun-09 14:28N 35°30' E 139°42'0 0.0
2018-Jun-09 13:58N 35°30' E 139°42'0 0.0
2018-Jun-09 13:28N 35°30' E 139°42'0 0.0
2018-Jun-09 12:58N 35°30' E 139°42'0 0.0
2018-Jun-09 12:28N 35°30' E 139°42'0 0.0
2018-Jun-09 11:58N 35°30' E 139°42'0 0.0
2018-Jun-09 11:28N 35°30' E 139°42'0 0.0
2018-Jun-09 10:58N 35°30' E 139°42'0 0.0
2018-Jun-09 10:28N 35°30' E 139°42'0 0.0
2018-Jun-09 09:58N 35°30' E 139°42'0 0.0
2018-Jun-09 09:28N 35°30' E 139°42'0 0.0
2018-Jun-09 08:58N 35°30' E 139°42'0 0.0
2018-Jun-09 08:28N 35°30' E 139°42'0 0.0
2018-Jun-09 07:58N 35°30' E 139°42'0 0.0
2018-Jun-09 07:28N 35°30' E 139°42'0 0.0
2018-Jun-09 06:58N 35°30' E 139°42'0 0.0
2018-Jun-09 06:28N 35°30' E 139°42'0 0.0
2018-Jun-09 05:58N 35°30' E 139°42'0 0.0
2018-Jun-09 05:28N 35°30' E 139°42'0 0.0
2018-Jun-09 04:58N 35°30' E 139°42'0 0.0
2018-Jun-09 04:28N 35°30' E 139°42'0 0.0
2018-Jun-09 03:58N 35°30' E 139°42'0 0.0
2018-Jun-09 03:28N 35°30' E 139°42'0 0.0
2018-Jun-09 02:58N 35°30' E 139°42'0 0.0
2018-Jun-09 02:28N 35°30' E 139°42'0 0.0
2018-Jun-09 01:58N 35°30' E 139°42'0 0.0
2018-Jun-09 01:28N 35°30' E 139°42'0 0.0
2018-Jun-09 00:58N 35°30' E 139°42'0 0.0
2018-Jun-09 00:28N 35°30' E 139°42'0 0.0
2018-Jun-08 23:58N 35°30' E 139°42'0 0.0
2018-Jun-08 23:28N 35°30' E 139°42'0 0.0
2018-Jun-08 22:58N 35°30' E 139°42'0 0.0
2018-Jun-08 22:28N 35°30' E 139°42'0 0.0
2018-Jun-08 21:58N 35°30' E 139°42'0 0.0
2018-Jun-08 21:28N 35°30' E 139°42'0 0.0
2018-Jun-08 20:52N 35°30' E 139°42'0 0.0
2018-Jun-08 20:28N 35°30' E 139°42'0 0.0
2018-Jun-08 19:58N 35°30' E 139°42'0 0.0
2018-Jun-08 19:25N 35°30' E 139°42'0 0.0
2018-Jun-08 18:58N 35°30' E 139°42'0 0.0
2018-Jun-08 18:28N 35°30' E 139°42'0 0.0
2018-Jun-08 17:58N 35°30' E 139°42'0 0.0
2018-Jun-08 17:28N 35°30' E 139°42'0 0.0
2018-Jun-08 16:58N 35°30' E 139°42'0 0.0
2018-Jun-08 16:28N 35°30' E 139°42'0 0.0
2018-Jun-08 15:58N 35°30' E 139°42'0 0.0
2018-Jun-08 15:28N 35°30' E 139°42'0 0.0
2018-Jun-08 14:58N 35°30' E 139°42'0 0.0
2018-Jun-08 14:28N 35°30' E 139°42'0 0.0
2018-Jun-08 13:58N 35°30' E 139°42'0 0.0
2018-Jun-08 13:28N 35°30' E 139°42'0 0.0
2018-Jun-08 12:58N 35°30' E 139°42'0 0.0
2018-Jun-08 12:28N 35°30' E 139°42'0 0.0
2018-Jun-08 11:58N 35°30' E 139°42'0 0.0
2018-Jun-08 11:28N 35°30' E 139°42'0 0.0
2018-Jun-08 10:58N 35°30' E 139°42'0 0.0
2018-Jun-08 10:28N 35°30' E 139°42'0 0.0
2018-Jun-08 09:58N 35°30' E 139°42'0 0.0
2018-Jun-08 09:28N 35°30' E 139°42'0 0.0
2018-Jun-08 08:58N 35°30' E 139°42'0 0.0
2018-Jun-08 08:28N 35°30' E 139°42'0 0.0
2018-Jun-08 07:58N 35°30' E 139°42'0 0.0
2018-Jun-08 07:28N 35°30' E 139°42'0 0.0
2018-Jun-08 06:58N 35°30' E 139°42'0 0.0
2018-Jun-08 06:28N 35°30' E 139°42'0 0.0
2018-Jun-08 05:58N 35°30' E 139°42'0 0.0
2018-Jun-08 05:28N 35°30' E 139°42'0 0.0
2018-Jun-08 04:58N 35°30' E 139°42'0 0.0
2018-Jun-08 04:30N 35°30' E 139°42'2 3.9
2018-Jun-08 04:00N 35°30' E 139°45'510.3
2018-Jun-08 03:29N 35°30' E 139°51'6 4.5
2018-Jun-08 02:12N 35°28' E 139°58'5 3.7
2018-Jun-08 00:53N 35°28' E 139°52'2 4.2
2018-Jun-08 00:27N 35°27' E 139°51'2 4.3
2018-Jun-08 00:00N 35°25' E 139°49'2 4.2
2018-Jun-07 23:30N 35°23' E 139°48'2 4.1
2018-Jun-07 23:00N 35°21' E 139°47'0 0.8
2018-Jun-07 22:30N 35°21' E 139°47'0 0.2
2018-Jun-07 22:01N 35°21' E 139°47'0 0.4
2018-Jun-07 21:30N 35°21' E 139°47'510.5
2018-Jun-07 21:01N 35°26' E 139°44'4 8.2
2018-Jun-07 20:30N 35°30' E 139°43'0 0.5
2018-Jun-07 19:58N 35°30' E 139°42'0 0.0
2018-Jun-07 19:25N 35°30' E 139°42'0 0.0
2018-Jun-07 18:58N 35°30' E 139°42'0 0.0
2018-Jun-07 18:28N 35°30' E 139°42'0 0.0
2018-Jun-07 17:58N 35°30' E 139°42'0 0.0
2018-Jun-07 17:28N 35°30' E 139°42'0 0.0
2018-Jun-07 16:58N 35°30' E 139°42'0 0.0
2018-Jun-07 16:28N 35°30' E 139°42'0 0.0
2018-Jun-07 15:58N 35°30' E 139°42'0 0.0
2018-Jun-07 15:28N 35°30' E 139°42'0 0.0
2018-Jun-07 14:58N 35°30' E 139°42'0 0.0
2018-Jun-07 14:28N 35°30' E 139°42'0 0.0
2018-Jun-07 13:58N 35°30' E 139°42'0 0.0
2018-Jun-07 13:28N 35°30' E 139°42'0 0.0
2018-Jun-07 12:58N 35°30' E 139°42'0 0.0
2018-Jun-07 12:25N 35°30' E 139°42'0 0.0
2018-Jun-07 11:58N 35°30' E 139°42'0 0.0
2018-Jun-07 11:28N 35°30' E 139°42'0 0.0
2018-Jun-07 10:58N 35°30' E 139°42'0 0.0
2018-Jun-07 10:28N 35°30' E 139°42'0 0.0
2018-Jun-07 09:58N 35°30' E 139°42'0 0.0
2018-Jun-07 09:28N 35°30' E 139°42'0 0.0
2018-Jun-07 08:58N 35°30' E 139°42'0 0.0
2018-Jun-07 08:25N 35°30' E 139°42'0 0.0
2018-Jun-07 07:58N 35°30' E 139°42'0 0.0
2018-Jun-07 07:28N 35°30' E 139°42'0 0.0
2018-Jun-07 06:58N 35°30' E 139°42'0 0.0
2018-Jun-07 06:28N 35°30' E 139°42'0 0.0
2018-Jun-07 05:58N 35°30' E 139°42'0 0.0
2018-Jun-07 05:28N 35°30' E 139°42'0 0.0
2018-Jun-07 04:58N 35°30' E 139°42'0 0.0
2018-Jun-07 04:25N 35°30' E 139°42'0 0.0
2018-Jun-07 03:55N 35°30' E 139°42'0 0.0
2018-Jun-07 03:28N 35°30' E 139°42'0 0.0
2018-Jun-07 02:58N 35°30' E 139°42'0 0.0
2018-Jun-07 02:28N 35°30' E 139°42'0 0.0
2018-Jun-07 01:58N 35°30' E 139°42'0 0.0
2018-Jun-07 01:28N 35°30' E 139°42'0 0.0
2018-Jun-07 00:58N 35°30' E 139°42'0 0.0
2018-Jun-07 00:28N 35°30' E 139°42'0 0.0
2018-Jun-06 23:58N 35°30' E 139°42'0 0.0
2018-Jun-06 23:28N 35°30' E 139°42'0 0.0
2018-Jun-06 22:55N 35°30' E 139°42'0 0.0
2018-Jun-06 22:28N 35°30' E 139°42'0 0.0
2018-Jun-06 21:58N 35°30' E 139°42'0 0.0
2018-Jun-06 21:28N 35°30' E 139°42'0 0.0
2018-Jun-06 20:55N 35°30' E 139°42'0 0.0
2018-Jun-06 20:28N 35°30' E 139°42'0 0.0
2018-Jun-06 19:58N 35°30' E 139°42'0 0.0
2018-Jun-06 19:28N 35°30' E 139°42'0 0.0
2018-Jun-06 18:58N 35°30' E 139°42'0 0.0
2018-Jun-06 18:28N 35°30' E 139°42'0 0.0
2018-Jun-06 17:58N 35°30' E 139°42'0 0.0
2018-Jun-06 17:28N 35°30' E 139°42'0 0.0
2018-Jun-06 16:58N 35°30' E 139°42'0 0.0
2018-Jun-06 16:28N 35°30' E 139°42'0 0.0
2018-Jun-06 15:58N 35°30' E 139°42'0 0.0
2018-Jun-06 15:25N 35°30' E 139°42'0 0.0
2018-Jun-06 14:58N 35°30' E 139°42'0 0.0
2018-Jun-06 14:28N 35°30' E 139°42'0 0.0
2018-Jun-06 13:58N 35°30' E 139°42'0 0.0
2018-Jun-06 13:28N 35°30' E 139°42'0 0.0
2018-Jun-06 12:58N 35°30' E 139°42'0 0.0
2018-Jun-06 12:28N 35°30' E 139°42'0 0.0
2018-Jun-06 11:58N 35°30' E 139°42'0 0.0
2018-Jun-06 11:28N 35°30' E 139°42'0 0.0
2018-Jun-06 10:58N 35°30' E 139°42'0 0.0
2018-Jun-06 10:28N 35°30' E 139°42'0 0.0
2018-Jun-06 09:58N 35°30' E 139°42'0 0.0
2018-Jun-06 09:28N 35°30' E 139°42'0 0.0
2018-Jun-06 08:55N 35°30' E 139°42'0 0.0
2018-Jun-06 08:28N 35°30' E 139°42'0 0.0
2018-Jun-06 07:58N 35°30' E 139°42'0 0.0
2018-Jun-06 07:28N 35°30' E 139°42'0 0.0
2018-Jun-06 06:58N 35°30' E 139°42'0 0.0
2018-Jun-06 06:28N 35°30' E 139°42'0 0.0
2018-Jun-06 05:58N 35°30' E 139°42'0 0.0
2018-Jun-06 05:28N 35°30' E 139°42'0 0.0
2018-Jun-06 04:58N 35°30' E 139°42'0 0.0
2018-Jun-06 04:28N 35°30' E 139°42'0 0.0
2018-Jun-06 03:58N 35°30' E 139°42'0 0.0
2018-Jun-06 03:28N 35°30' E 139°42'0 0.0
2018-Jun-06 02:58N 35°30' E 139°42'0 0.0
2018-Jun-06 02:28N 35°30' E 139°42'0 0.0
2018-Jun-06 01:58N 35°30' E 139°42'0 0.0
2018-Jun-06 01:28N 35°30' E 139°42'0 0.0
2018-Jun-06 00:58N 35°30' E 139°42'0 0.0
2018-Jun-06 00:28N 35°30' E 139°42'0 0.0
2018-Jun-05 23:55N 35°30' E 139°42'0 0.0
2018-Jun-05 23:25N 35°30' E 139°42'0 0.0
2018-Jun-05 22:58N 35°30' E 139°42'0 0.0
2018-Jun-05 22:28N 35°30' E 139°42'0 0.0
2018-Jun-05 21:58N 35°30' E 139°42'0 0.0
2018-Jun-05 21:28N 35°30' E 139°42'0 0.0
2018-Jun-05 20:58N 35°30' E 139°42'0 0.0
2018-Jun-05 20:28N 35°30' E 139°42'0 0.0
2018-Jun-05 19:55N 35°30' E 139°42'0 0.0
2018-Jun-05 19:28N 35°30' E 139°42'0 0.0
2018-Jun-05 18:58N 35°30' E 139°42'0 0.0
2018-Jun-05 18:25N 35°30' E 139°42'0 0.0
2018-Jun-05 17:58N 35°30' E 139°42'0 0.0
2018-Jun-05 17:28N 35°30' E 139°42'0 0.0
2018-Jun-05 16:58N 35°30' E 139°42'0 0.0
2018-Jun-05 16:28N 35°30' E 139°42'0 0.0
2018-Jun-05 15:58N 35°30' E 139°42'0 0.0
2018-Jun-05 15:28N 35°30' E 139°42'0 0.0
2018-Jun-05 14:58N 35°30' E 139°42'0 0.0
2018-Jun-05 14:28N 35°30' E 139°42'0 0.0
2018-Jun-05 13:58N 35°30' E 139°42'0 0.0
2018-Jun-05 13:28N 35°30' E 139°42'0 0.0
2018-Jun-05 12:58N 35°30' E 139°42'0 0.0
2018-Jun-05 12:28N 35°30' E 139°42'0 0.0
2018-Jun-05 11:58N 35°30' E 139°42'0 0.0
2018-Jun-05 11:28N 35°30' E 139°42'0 0.0
2018-Jun-05 10:58N 35°30' E 139°42'0 0.0
2018-Jun-05 10:28N 35°30' E 139°42'0 0.0
2018-Jun-05 09:58N 35°30' E 139°42'0 0.0
2018-Jun-05 09:28N 35°30' E 139°42'0 0.0
2018-Jun-05 08:58N 35°30' E 139°42'0 0.0
2018-Jun-05 08:28N 35°30' E 139°42'0 0.0
2018-Jun-05 07:58N 35°30' E 139°42'0 0.0
2018-Jun-05 07:28N 35°30' E 139°42'0 0.0
2018-Jun-05 06:58N 35°30' E 139°42'0 0.0
2018-Jun-05 06:28N 35°30' E 139°42'0 0.0
2018-Jun-05 05:58N 35°30' E 139°42'0 0.0
2018-Jun-05 05:30N 35°30' E 139°42'0 0.0
2018-Jun-05 04:59N 35°30' E 139°42'0 0.0
2018-Jun-05 04:30N 35°30' E 139°42'0 0.0
2018-Jun-05 04:00N 35°30' E 139°42'0 0.0
2018-Jun-05 03:31N 35°30' E 139°42'0 0.0
2018-Jun-05 02:59N 35°30' E 139°42'0 0.0
2018-Jun-05 02:30N 35°30' E 139°42'0 0.0
2018-Jun-05 02:01N 35°30' E 139°42'0 0.0
2018-Jun-05 01:30N 35°30' E 139°42'0 0.0
2018-Jun-05 01:01N 35°30' E 139°42'0 0.0
2018-Jun-05 00:31N 35°30' E 139°42'0 0.0
2018-Jun-04 23:59N 35°30' E 139°42'0 0.0
2018-Jun-04 23:31N 35°30' E 139°42'0 0.0
2018-Jun-04 23:00N 35°30' E 139°42'0 0.0
2018-Jun-04 22:30N 35°30' E 139°42'0 0.0
2018-Jun-04 21:58N 35°30' E 139°42'0 0.0
2018-Jun-04 21:30N 35°30' E 139°42'0 0.0
2018-Jun-04 20:59N 35°30' E 139°42'0 0.0
2018-Jun-04 20:30N 35°30' E 139°42'0 0.0
2018-Jun-04 20:00N 35°30' E 139°42'0 0.0
2018-Jun-04 19:30N 35°30' E 139°42'0 0.0
2018-Jun-04 19:01N 35°30' E 139°42'0 0.0
2018-Jun-04 18:30N 35°30' E 139°42'0 0.0
2018-Jun-04 18:00N 35°30' E 139°42'0 0.0
2018-Jun-04 17:30N 35°30' E 139°42'0 0.0
2018-Jun-04 17:00N 35°30' E 139°42'0 0.0
2018-Jun-04 16:30N 35°30' E 139°42'0 0.0
2018-Jun-04 16:00N 35°30' E 139°42'0 0.0
2018-Jun-04 15:30N 35°30' E 139°42'0 0.0
2018-Jun-04 14:57N 35°30' E 139°42'0 0.0
2018-Jun-04 14:30N 35°30' E 139°42'0 0.0
2018-Jun-04 14:01N 35°30' E 139°42'0 0.0
2018-Jun-04 13:29N 35°30' E 139°42'0 0.0
2018-Jun-04 13:00N 35°30' E 139°42'0 0.0
2018-Jun-04 12:28N 35°30' E 139°42'0 0.0
2018-Jun-04 12:00N 35°30' E 139°42'0 0.0
2018-Jun-04 11:31N 35°30' E 139°42'0 0.0
2018-Jun-04 11:00N 35°30' E 139°42'0 0.0
2018-Jun-04 10:29N 35°30' E 139°42'0 0.0
2018-Jun-04 10:00N 35°30' E 139°42'0 0.0
2018-Jun-04 09:30N 35°30' E 139°42'0 0.0
2018-Jun-04 08:59N 35°30' E 139°42'0 0.0
2018-Jun-04 08:29N 35°30' E 139°42'0 0.0
2018-Jun-04 08:00N 35°30' E 139°42'0 0.0
2018-Jun-04 07:29N 35°30' E 139°42'0 0.0
2018-Jun-04 06:59N 35°30' E 139°42'0 0.0
2018-Jun-04 06:29N 35°30' E 139°42'0 0.0
2018-Jun-04 06:00N 35°30' E 139°42'0 0.0
2018-Jun-04 05:30N 35°30' E 139°42'0 0.0
2018-Jun-04 05:00N 35°30' E 139°42'0 0.0
2018-Jun-04 04:30N 35°30' E 139°42'0 0.0
2018-Jun-04 03:58N 35°30' E 139°42'0 0.0
2018-Jun-04 03:30N 35°30' E 139°42'0 0.0
2018-Jun-04 03:01N 35°30' E 139°42'0 0.0
2018-Jun-04 02:30N 35°30' E 139°42'0 0.0
2018-Jun-04 01:59N 35°30' E 139°42'0 0.0
2018-Jun-04 01:27N 35°30' E 139°42'0 0.0
2018-Jun-04 01:01N 35°30' E 139°42'0 0.0
2018-Jun-04 00:28N 35°30' E 139°42'0 0.0
2018-Jun-03 23:59N 35°30' E 139°42'0 0.0
2018-Jun-03 23:30N 35°30' E 139°42'0 0.0
2018-Jun-03 23:01N 35°30' E 139°42'0 0.0
2018-Jun-03 22:30N 35°30' E 139°42'0 0.0
2018-Jun-03 22:00N 35°30' E 139°42'0 0.0
2018-Jun-03 21:30N 35°30' E 139°42'0 0.0
2018-Jun-03 21:00N 35°30' E 139°42'0 0.0
2018-Jun-03 20:30N 35°30' E 139°42'0 0.0
2018-Jun-03 20:00N 35°30' E 139°42'0 0.0
2018-Jun-03 19:30N 35°30' E 139°42'0 0.0
2018-Jun-03 19:00N 35°30' E 139°42'0 0.0
2018-Jun-03 18:29N 35°30' E 139°42'0 0.0
2018-Jun-03 18:00N 35°30' E 139°42'0 0.0
2018-Jun-03 17:30N 35°30' E 139°42'0 0.0
2018-Jun-03 16:55N 35°30' E 139°42'0 0.0
2018-Jun-03 16:29N 35°30' E 139°42'0 0.0
2018-Jun-03 16:00N 35°30' E 139°42'0 0.0
2018-Jun-03 15:30N 35°30' E 139°42'0 0.0
2018-Jun-03 15:01N 35°30' E 139°42'0 0.0
2018-Jun-03 14:29N 35°30' E 139°42'0 0.0
2018-Jun-03 13:59N 35°30' E 139°42'0 0.0
2018-Jun-03 13:30N 35°30' E 139°42'0 0.0
2018-Jun-03 13:00N 35°30' E 139°42'0 0.0
2018-Jun-03 12:29N 35°30' E 139°42'0 0.0
2018-Jun-03 12:00N 35°30' E 139°42'0 0.0
2018-Jun-03 11:31N 35°30' E 139°42'0 0.0
2018-Jun-03 11:00N 35°30' E 139°42'0 0.0
2018-Jun-03 10:30N 35°30' E 139°42'0 0.0
2018-Jun-03 09:59N 35°30' E 139°42'0 0.0
2018-Jun-03 09:30N 35°30' E 139°42'0 0.0
2018-Jun-03 09:00N 35°30' E 139°42'0 0.0
2018-Jun-03 08:30N 35°30' E 139°42'0 0.0
2018-Jun-03 08:00N 35°30' E 139°42'0 0.0
2018-Jun-03 07:30N 35°30' E 139°42'0 0.0
2018-Jun-03 07:01N 35°30' E 139°42'0 0.0
2018-Jun-03 06:30N 35°30' E 139°42'0 0.6
2018-Jun-03 06:00N 35°30' E 139°43'5 9.7
2018-Jun-03 05:30N 35°25' E 139°42'611.1
2018-Jun-03 05:00N 35°19' E 139°42'610.3
2018-Jun-03 04:29N 35°14' E 139°45'  

Dump ship's entire track history